^^
Saratoga-Weather Station Historical Data
Daily Summary for October 5, 2020 Units:  Both    English   Metric
Daily Weekly Monthly Yearly Custom
  High: Low: Average:
Temperature: 53.8 °F /  12.1 °C 49.3 °F /  9.6 °C 51.4 °F /  10.8 °C
Dew Point: 52.3 °F /  11.3 °C 46.9 °F /  8.3 °C 49.5 °F /  9.7 °C
Humidity: 95% 88% 93%
Wind Speed: 9mph /  14.5km/h - 2.1mph /  3.3km/h
Wind Gust: 12mph /  19.3km/h - -
Wind- - SSE
Pressure: 29.6 in /  1003.7 hPa 29.5 in /  999.3 hPa -
Precipitation: 0.98 in /  24.9 mm    
Historical Graphs
 
 
Tabular Data for October 5, 2020
Time Temperature Dew Point Pressure Wind Wind Speed Wind Gust Humidity Rainfall Rate (Hourly) solar
00:02 49.3 °F /  9.6 °C 47.7 °F /  8.7 °C 29.5in /  999.3hPa East 2.9mph /  4.7km/h 5mph /  8km/h 94% 0in /  0.0mm 0 W/m2
00:07 49.3 °F /  9.6 °C 47.7 °F /  8.7 °C 29.5in /  999.3hPa ENE 2mph /  3.2km/h 6mph /  9.7km/h 94% 0in /  0.0mm 0 W/m2
00:12 49.5 °F /  9.7 °C 47.8 °F /  8.8 °C 29.5in /  999.3hPa East 2mph /  3.2km/h 2mph /  3.2km/h 94% 0in /  0.0mm 0 W/m2
00:17 49.5 °F /  9.7 °C 47.8 °F /  8.8 °C 29.5in /  999.3hPa ENE 2mph /  3.2km/h 4mph /  6.4km/h 94% 0in /  0.0mm 0 W/m2
00:22 49.5 °F /  9.7 °C 47.5 °F /  8.6 °C 29.5in /  999.3hPa NE 0.9mph /  1.4km/h 3mph /  4.8km/h 93% 0in /  0.0mm 0 W/m2
00:27 49.5 °F /  9.7 °C 47.5 °F /  8.6 °C 29.5in /  999.3hPa North 2mph /  3.2km/h 2mph /  3.2km/h 93% 0in /  0.0mm 0 W/m2
00:32 49.6 °F /  9.8 °C 47.7 °F /  8.7 °C 29.5in /  999.3hPa East 2.9mph /  4.7km/h 6mph /  9.7km/h 93% 0in /  0.0mm 0 W/m2
00:37 49.6 °F /  9.8 °C 47.7 °F /  8.7 °C 29.5in /  999.3hPa East 2mph /  3.2km/h 5mph /  8km/h 93% 0in /  0.0mm 0 W/m2
00:42 49.8 °F /  9.9 °C 47.7 °F /  8.7 °C 29.5in /  999.3hPa NNW 2.9mph /  4.7km/h 3mph /  4.8km/h 92% 0in /  0.0mm 0 W/m2
00:47 49.8 °F /  9.9 °C 47.7 °F /  8.7 °C 29.5in /  999.3hPa ENE 2mph /  3.2km/h 5mph /  8km/h 92% 0in /  0.0mm 0 W/m2
00:52 49.8 °F /  9.9 °C 47.7 °F /  8.7 °C 29.5in /  999.3hPa NNE 0.9mph /  1.4km/h 2mph /  3.2km/h 92% 0in /  0.0mm 0 W/m2
00:57 49.8 °F /  9.9 °C 47.3 °F /  8.5 °C 29.5in /  999.3hPa North 2mph /  3.2km/h 4mph /  6.4km/h 91% 0in /  0.0mm 0 W/m2
01:02 49.8 °F /  9.9 °C 47.3 °F /  8.5 °C 29.5in /  999.3hPa North 0.9mph /  1.4km/h 2mph /  3.2km/h 91% 0in /  0.0mm 0 W/m2
01:07 49.8 °F /  9.9 °C 47.3 °F /  8.5 °C 29.5in /  999.3hPa North 0.9mph /  1.4km/h 2mph /  3.2km/h 91% 0in /  0.0mm 0 W/m2
01:12 49.8 °F /  9.9 °C 47.3 °F /  8.5 °C 29.5in /  999.3hPa NNW 0.9mph /  1.4km/h 2mph /  3.2km/h 91% 0in /  0.0mm 0 W/m2
01:17 49.8 °F /  9.9 °C 47.3 °F /  8.5 °C 29.5in /  999.3hPa ENE 0.9mph /  1.4km/h 2mph /  3.2km/h 91% 0in /  0.0mm 0 W/m2
01:23 49.6 °F /  9.8 °C 47.1 °F /  8.4 °C 29.5in /  999.3hPa ENE 0.9mph /  1.4km/h 3mph /  4.8km/h 91% 0in /  0.0mm 0 W/m2
01:28 49.6 °F /  9.8 °C 47.1 °F /  8.4 °C 29.5in /  999.3hPa North 2mph /  3.2km/h 3mph /  4.8km/h 91% 0in /  0.0mm 0 W/m2
01:33 49.6 °F /  9.8 °C 47.1 °F /  8.4 °C 29.5in /  999.3hPa East 2mph /  3.2km/h 3mph /  4.8km/h 91% 0in /  0.0mm 0 W/m2
01:38 49.5 °F /  9.7 °C 46.9 °F /  8.3 °C 29.5in /  999.7hPa Calm   3mph /  4.8km/h 91% 0in /  0.0mm 0 W/m2
01:43 49.5 °F /  9.7 °C 46.9 °F /  8.3 °C 29.5in /  999.7hPa Calm   2mph /  3.2km/h 91% 0in /  0.0mm 0 W/m2
01:48 49.5 °F /  9.7 °C 47.3 °F /  8.5 °C 29.5in /  999.7hPa Calm   3mph /  4.8km/h 92% 0in /  0.0mm 0 W/m2
01:53 49.5 °F /  9.7 °C 47.3 °F /  8.5 °C 29.5in /  999.7hPa East 2.9mph /  4.7km/h 4mph /  6.4km/h 92% 0in /  0.0mm 0 W/m2
01:58 49.5 °F /  9.7 °C 47.3 °F /  8.5 °C 29.5in /  999.7hPa ENE 0.9mph /  1.4km/h 4mph /  6.4km/h 92% 0in /  0.0mm 0 W/m2
02:03 49.5 °F /  9.7 °C 47.3 °F /  8.5 °C 29.5in /  999.7hPa ENE 2mph /  3.2km/h 3mph /  4.8km/h 92% 0in /  0.0mm 0 W/m2
02:08 49.6 °F /  9.8 °C 47.5 °F /  8.6 °C 29.5in /  999.7hPa Calm   5mph /  8km/h 92% 0in /  0.0mm 0 W/m2
02:13 49.6 °F /  9.8 °C 47.5 °F /  8.6 °C 29.5in /  999.7hPa NE 0.9mph /  1.4km/h 4mph /  6.4km/h 92% 0in /  0.0mm 0 W/m2
02:18 49.8 °F /  9.9 °C 47.7 °F /  8.7 °C 29.5in /  999.7hPa NE 4mph /  6.4km/h 5mph /  8km/h 92% 0in /  0.0mm 0 W/m2
02:23 50 °F /  10 °C 47.5 °F /  8.6 °C 29.5in /  999.7hPa ENE 2.9mph /  4.7km/h 4mph /  6.4km/h 91% 0in /  0.0mm 0 W/m2
02:28 50.2 °F /  10.1 °C 47.7 °F /  8.7 °C 29.5in /  999.7hPa ENE 2.9mph /  4.7km/h 3mph /  4.8km/h 91% 0in /  0.0mm 0 W/m2
02:33 50.2 °F /  10.1 °C 47.7 °F /  8.7 °C 29.5in /  999.7hPa ENE 0.9mph /  1.4km/h 4mph /  6.4km/h 91% 0in /  0.0mm 0 W/m2
02:38 50.2 °F /  10.1 °C 47.7 °F /  8.7 °C 29.5in /  999.7hPa NE 2.9mph /  4.7km/h 6mph /  9.7km/h 91% 0in /  0.0mm 0 W/m2
02:43 50.2 °F /  10.1 °C 47.7 °F /  8.7 °C 29.5in /  999.7hPa ENE 2mph /  3.2km/h 4mph /  6.4km/h 91% 0in /  0.0mm 0 W/m2
02:48 50.2 °F /  10.1 °C 47.7 °F /  8.7 °C 29.5in /  999.7hPa Calm   6mph /  9.7km/h 91% 0in /  0.0mm 0 W/m2
02:53 50.2 °F /  10.1 °C 48 °F /  8.9 °C 29.5in /  999.7hPa ENE 4mph /  6.4km/h 7mph /  11.3km/h 92% 0in /  0.0mm 0 W/m2
02:58 50.4 °F /  10.2 °C 47.8 °F /  8.8 °C 29.5in /  999.7hPa ENE 6mph /  9.7km/h 6mph /  9.7km/h 91% 0in /  0.0mm 0 W/m2
03:03 50.4 °F /  10.2 °C 47.8 °F /  8.8 °C 29.5in /  999.7hPa ENE 2.9mph /  4.7km/h 4mph /  6.4km/h 91% 0in /  0.0mm 0 W/m2
03:08 50.4 °F /  10.2 °C 47.8 °F /  8.8 °C 29.5in /  1000.0hPa NNE 0.9mph /  1.4km/h 3mph /  4.8km/h 91% 0in /  0.0mm 0 W/m2
03:13 50.4 °F /  10.2 °C 47.8 °F /  8.8 °C 29.5in /  999.7hPa NE 0.9mph /  1.4km/h 5mph /  8km/h 91% 0in /  0.0mm 0 W/m2
03:18 50.5 °F /  10.3 °C 48 °F /  8.9 °C 29.5in /  999.7hPa NNE 0.9mph /  1.4km/h 2mph /  3.2km/h 91% 0in /  0.0mm 0 W/m2
03:23 50.5 °F /  10.3 °C 48 °F /  8.9 °C 29.5in /  999.7hPa East 2.9mph /  4.7km/h 5mph /  8km/h 91% 0in /  0.0mm 0 W/m2
03:28 50.5 °F /  10.3 °C 48 °F /  8.9 °C 29.5in /  999.7hPa Calm   4mph /  6.4km/h 91% 0in /  0.0mm 0 W/m2
03:33 50.7 °F /  10.4 °C 47.8 °F /  8.8 °C 29.5in /  1000.0hPa NE 0.9mph /  1.4km/h 3mph /  4.8km/h 90% 0in /  0.0mm 0 W/m2
03:38 50.7 °F /  10.4 °C 47.8 °F /  8.8 °C 29.5in /  999.7hPa ENE 2.9mph /  4.7km/h 6mph /  9.7km/h 90% 0in /  0.0mm 0 W/m2
03:43 50.9 °F /  10.5 °C 48 °F /  8.9 °C 29.5in /  999.7hPa Calm   2mph /  3.2km/h 90% 0in /  0.0mm 0 W/m2
03:48 50.9 °F /  10.5 °C 48 °F /  8.9 °C 29.5in /  999.7hPa ENE 2mph /  3.2km/h 5mph /  8km/h 90% 0in /  0.0mm 0 W/m2
03:53 51.1 °F /  10.6 °C 48.2 °F /  9 °C 29.5in /  1000.0hPa NNE 2mph /  3.2km/h 4mph /  6.4km/h 90% 0in /  0.0mm 0 W/m2
03:58 51.1 °F /  10.6 °C 48 °F /  8.9 °C 29.5in /  999.7hPa NE 2mph /  3.2km/h 4mph /  6.4km/h 89% 0in /  0.0mm 0 W/m2
04:03 51.1 °F /  10.6 °C 48 °F /  8.9 °C 29.5in /  999.7hPa NNE 4mph /  6.4km/h 5mph /  8km/h 89% 0in /  0.0mm 0 W/m2
04:08 51.1 °F /  10.6 °C 48 °F /  8.9 °C 29.5in /  999.7hPa NNW 2mph /  3.2km/h 3mph /  4.8km/h 89% 0in /  0.0mm 0 W/m2
04:13 51.1 °F /  10.6 °C 48 °F /  8.9 °C 29.5in /  999.7hPa NW 0.9mph /  1.4km/h 5mph /  8km/h 89% 0in /  0.0mm 0 W/m2
04:18 51.1 °F /  10.6 °C 48 °F /  8.9 °C 29.5in /  999.7hPa ENE 2mph /  3.2km/h 2mph /  3.2km/h 89% 0in /  0.0mm 0 W/m2
04:23 51.1 °F /  10.6 °C 48 °F /  8.9 °C 29.5in /  999.7hPa NNE 2.9mph /  4.7km/h 4mph /  6.4km/h 89% 0in /  0.0mm 0 W/m2
04:29 51.1 °F /  10.6 °C 48 °F /  8.9 °C 29.5in /  999.7hPa NE 0.9mph /  1.4km/h 3mph /  4.8km/h 89% 0in /  0.0mm 0 W/m2
04:34 51.1 °F /  10.6 °C 48 °F /  8.9 °C 29.5in /  999.7hPa ENE 4mph /  6.4km/h 5mph /  8km/h 89% 0in /  0.0mm 0 W/m2
04:39 51.1 °F /  10.6 °C 47.7 °F /  8.7 °C 29.5in /  999.7hPa ENE 4mph /  6.4km/h 4mph /  6.4km/h 88% 0in /  0.0mm 0 W/m2
04:44 50.9 °F /  10.5 °C 47.5 °F /  8.6 °C 29.5in /  999.7hPa North 0.9mph /  1.4km/h 5mph /  8km/h 88% 0in /  0.0mm 0 W/m2
04:49 50.9 °F /  10.5 °C 47.5 °F /  8.6 °C 29.5in /  999.7hPa NE 2mph /  3.2km/h 3mph /  4.8km/h 88% 0in /  0.0mm 0 W/m2
04:54 50.7 °F /  10.4 °C 47.3 °F /  8.5 °C 29.5in /  999.7hPa NE 2mph /  3.2km/h 4mph /  6.4km/h 88% 0in /  0.0mm 0 W/m2
04:59 50.7 °F /  10.4 °C 47.3 °F /  8.5 °C 29.5in /  999.7hPa NE 2mph /  3.2km/h 3mph /  4.8km/h 88% 0in /  0.0mm 0 W/m2
05:04 50.5 °F /  10.3 °C 47.1 °F /  8.4 °C 29.5in /  999.7hPa NE 2mph /  3.2km/h 2mph /  3.2km/h 88% 0in /  0.0mm 0 W/m2
05:09 50.5 °F /  10.3 °C 47.1 °F /  8.4 °C 29.5in /  999.7hPa NNE 2mph /  3.2km/h 4mph /  6.4km/h 88% 0in /  0.0mm 0 W/m2
05:14 50.5 °F /  10.3 °C 47.1 °F /  8.4 °C 29.5in /  999.7hPa Calm   4mph /  6.4km/h 88% 0in /  0.0mm 0 W/m2
05:19 50.5 °F /  10.3 °C 47.1 °F /  8.4 °C 29.5in /  1000.0hPa NE 2mph /  3.2km/h 2mph /  3.2km/h 88% 0in /  0.0mm 0 W/m2
05:24 50.7 °F /  10.4 °C 47.3 °F /  8.5 °C 29.5in /  1000.0hPa East 2.9mph /  4.7km/h 3mph /  4.8km/h 88% 0in /  0.0mm 0 W/m2
05:29 50.5 °F /  10.3 °C 47.1 °F /  8.4 °C 29.5in /  1000.0hPa ENE 2mph /  3.2km/h 5mph /  8km/h 88% 0in /  0.0mm 0 W/m2
05:34 50.5 °F /  10.3 °C 47.1 °F /  8.4 °C 29.5in /  1000.0hPa SW 0.9mph /  1.4km/h 5mph /  8km/h 88% 0in /  0.0mm 0 W/m2
05:39 50.5 °F /  10.3 °C 47.1 °F /  8.4 °C 29.5in /  1000.0hPa ENE 0.9mph /  1.4km/h 2mph /  3.2km/h 88% 0in /  0.0mm 0 W/m2
05:44 50.5 °F /  10.3 °C 47.1 °F /  8.4 °C 29.5in /  1000.0hPa East 4mph /  6.4km/h 4mph /  6.4km/h 88% 0in /  0.0mm 0 W/m2
05:49 50.5 °F /  10.3 °C 47.1 °F /  8.4 °C 29.5in /  1000.0hPa SSE 0.9mph /  1.4km/h 4mph /  6.4km/h 88% 0in /  0.0mm 0 W/m2
05:54 50.5 °F /  10.3 °C 47.5 °F /  8.6 °C 29.5in /  1000.0hPa East 2.9mph /  4.7km/h 6mph /  9.7km/h 89% 0in /  0.0mm 0 W/m2
05:59 50.5 °F /  10.3 °C 47.5 °F /  8.6 °C 29.5in /  1000.0hPa NE 4mph /  6.4km/h 7mph /  11.3km/h 89% 0in /  0.0mm 0 W/m2
06:04 50.4 °F /  10.2 °C 47.3 °F /  8.5 °C 29.5in /  1000.0hPa East 0.9mph /  1.4km/h 5mph /  8km/h 89% 0in /  0.0mm 0 W/m2
06:09 50.4 °F /  10.2 °C 47.3 °F /  8.5 °C 29.5in /  1000.0hPa NE 2.9mph /  4.7km/h 6mph /  9.7km/h 89% 0in /  0.0mm 0 W/m2
06:14 50.4 °F /  10.2 °C 47.3 °F /  8.5 °C 29.5in /  1000.0hPa ENE 4mph /  6.4km/h 4mph /  6.4km/h 89% 0in /  0.0mm 0 W/m2
06:19 50.4 °F /  10.2 °C 47.3 °F /  8.5 °C 29.5in /  1000.0hPa ESE 0.9mph /  1.4km/h 4mph /  6.4km/h 89% 0in /  0.0mm 0 W/m2
06:24 50.4 °F /  10.2 °C 47.3 °F /  8.5 °C 29.5in /  1000.0hPa ENE 2mph /  3.2km/h 4mph /  6.4km/h 89% 0in /  0.0mm 0 W/m2
06:29 50.4 °F /  10.2 °C 47.3 °F /  8.5 °C 29.5in /  1000.0hPa ENE 0.9mph /  1.4km/h 4mph /  6.4km/h 89% 0in /  0.0mm 0 W/m2
06:34 50.4 °F /  10.2 °C 47.3 °F /  8.5 °C 29.5in /  1000.0hPa NE 2mph /  3.2km/h 7mph /  11.3km/h 89% 0in /  0.0mm 0 W/m2
06:39 50.4 °F /  10.2 °C 47.3 °F /  8.5 °C 29.5in /  1000.0hPa East 6.9mph /  11.1km/h 7mph /  11.3km/h 89% 0in /  0.0mm 0 W/m2
06:44 50.5 °F /  10.3 °C 47.1 °F /  8.4 °C 29.5in /  1000.0hPa NE 2.9mph /  4.7km/h 6mph /  9.7km/h 88% 0in /  0.0mm 0 W/m2
06:49 50.5 °F /  10.3 °C 47.1 °F /  8.4 °C 29.5in /  1000.0hPa NE 2.9mph /  4.7km/h 9mph /  14.5km/h 88% 0in /  0.0mm 0 W/m2
06:54 50.5 °F /  10.3 °C 47.1 °F /  8.4 °C 29.5in /  1000.0hPa ENE 2mph /  3.2km/h 4mph /  6.4km/h 88% 0in /  0.0mm 0 W/m2
06:59 50.4 °F /  10.2 °C 47.3 °F /  8.5 °C 29.5in /  1000.0hPa East 2.9mph /  4.7km/h 9mph /  14.5km/h 89% 0in /  0.0mm 0 W/m2
07:04 50.2 °F /  10.1 °C 47.1 °F /  8.4 °C 29.5in /  1000.0hPa NE 4.9mph /  7.9km/h 7mph /  11.3km/h 89% 0in /  0.0mm 0 W/m2
07:09 50.2 °F /  10.1 °C 47.1 °F /  8.4 °C 29.5in /  1000.0hPa North 2mph /  3.2km/h 7mph /  11.3km/h 89% 0in /  0.0mm 0 W/m2
07:14 50.2 °F /  10.1 °C 47.1 °F /  8.4 °C 29.5in /  1000.0hPa ESE 2mph /  3.2km/h 5mph /  8km/h 89% 0in /  0.0mm 0 W/m2
07:19 50.2 °F /  10.1 °C 47.1 °F /  8.4 °C 29.5in /  1000.0hPa NE 4.9mph /  7.9km/h 5mph /  8km/h 89% 0in /  0.0mm 0 W/m2
07:24 50.2 °F /  10.1 °C 47.1 °F /  8.4 °C 29.5in /  1000.0hPa Calm   4mph /  6.4km/h 89% 0in /  0.0mm 0 W/m2
07:29 50.2 °F /  10.1 °C 47.1 °F /  8.4 °C 29.5in /  1000.0hPa East 4mph /  6.4km/h 6mph /  9.7km/h 89% 0.01in /  0.2mm 0 W/m2
07:34 50.2 °F /  10.1 °C 47.3 °F /  8.5 °C 29.5in /  1000.0hPa ENE 2mph /  3.2km/h 5mph /  8km/h 90% 0.01in /  0.2mm 0 W/m2
07:39 50.2 °F /  10.1 °C 47.3 °F /  8.5 °C 29.5in /  1000.0hPa NE 2mph /  3.2km/h 3mph /  4.8km/h 90% 0.01in /  0.2mm 0 W/m2
07:44 50.2 °F /  10.1 °C 47.3 °F /  8.5 °C 29.5in /  1000.0hPa ENE 4.9mph /  7.9km/h 8mph /  12.9km/h 90% 0.01in /  0.2mm 0 W/m2
07:49 50.2 °F /  10.1 °C 47.3 °F /  8.5 °C 29.5in /  1000.0hPa ENE 4mph /  6.4km/h 6mph /  9.7km/h 90% 0.01in /  0.2mm 0 W/m2
07:54 50.2 °F /  10.1 °C 47.3 °F /  8.5 °C 29.5in /  1000.3hPa ENE 2mph /  3.2km/h 6mph /  9.7km/h 90% 0.01in /  0.2mm 0 W/m2
07:59 50.2 °F /  10.1 °C 47.3 °F /  8.5 °C 29.5in /  1000.0hPa SE 0.9mph /  1.4km/h 6mph /  9.7km/h 90% 0.01in /  0.2mm 0 W/m2
08:04 50.2 °F /  10.1 °C 47.3 °F /  8.5 °C 29.5in /  1000.3hPa NNE 2mph /  3.2km/h 4mph /  6.4km/h 90% 0.01in /  0.2mm 5 W/m2
08:09 50 °F /  10 °C 47.1 °F /  8.4 °C 29.5in /  1000.3hPa East 2.9mph /  4.7km/h 7mph /  11.3km/h 90% 0.02in /  0.5mm 7 W/m2
08:14 49.8 °F /  9.9 °C 46.9 °F /  8.3 °C 29.5in /  1000.3hPa NNW 2.9mph /  4.7km/h 4mph /  6.4km/h 90% 0.02in /  0.5mm 7 W/m2
08:19 49.8 °F /  9.9 °C 47.3 °F /  8.5 °C 29.5in /  1000.3hPa NNE 0.9mph /  1.4km/h 3mph /  4.8km/h 91% 0.02in /  0.5mm 9 W/m2
08:24 49.8 °F /  9.9 °C 47.3 °F /  8.5 °C 29.5in /  1000.3hPa ENE 0.9mph /  1.4km/h 2mph /  3.2km/h 91% 0.02in /  0.5mm 9 W/m2
08:29 49.8 °F /  9.9 °C 47.3 °F /  8.5 °C 29.5in /  1000.3hPa East 2mph /  3.2km/h 4mph /  6.4km/h 91% 0.02in /  0.5mm 16 W/m2
08:35 49.6 °F /  9.8 °C 47.1 °F /  8.4 °C 29.5in /  1000.3hPa NNE 2mph /  3.2km/h 4mph /  6.4km/h 91% 0.02in /  0.5mm 26 W/m2
08:40 49.6 °F /  9.8 °C 47.1 °F /  8.4 °C 29.5in /  1000.3hPa ENE 2mph /  3.2km/h 6mph /  9.7km/h 91% 0.02in /  0.5mm 30 W/m2
08:45 49.6 °F /  9.8 °C 47.1 °F /  8.4 °C 29.5in /  1000.3hPa ENE 2.9mph /  4.7km/h 6mph /  9.7km/h 91% 0.02in /  0.5mm 18 W/m2
08:50 49.6 °F /  9.8 °C 47.1 °F /  8.4 °C 29.5in /  1000.3hPa North 2mph /  3.2km/h 4mph /  6.4km/h 91% 0.02in /  0.5mm 11 W/m2
08:55 49.8 °F /  9.9 °C 47.3 °F /  8.5 °C 29.5in /  1000.3hPa NW 2.9mph /  4.7km/h 8mph /  12.9km/h 91% 0.02in /  0.5mm 5 W/m2
09:00 49.8 °F /  9.9 °C 47.3 °F /  8.5 °C 29.5in /  1000.3hPa ENE 2mph /  3.2km/h 4mph /  6.4km/h 91% 0.02in /  0.5mm 7 W/m2
09:05 49.8 °F /  9.9 °C 47.3 °F /  8.5 °C 29.5in /  1000.3hPa NE 2mph /  3.2km/h 4mph /  6.4km/h 91% 0.02in /  0.5mm 9 W/m2
09:10 49.8 °F /  9.9 °C 47.3 °F /  8.5 °C 29.5in /  1000.3hPa NE 0.9mph /  1.4km/h 3mph /  4.8km/h 91% 0.02in /  0.5mm 33 W/m2
09:15 49.8 °F /  9.9 °C 47.3 °F /  8.5 °C 29.5in /  1000.3hPa Calm   3mph /  4.8km/h 91% 0.02in /  0.5mm 33 W/m2
09:20 49.8 °F /  9.9 °C 47.3 °F /  8.5 °C 29.5in /  1000.3hPa NE 2mph /  3.2km/h 4mph /  6.4km/h 91% 0.02in /  0.5mm 25 W/m2
09:25 49.8 °F /  9.9 °C 47.3 °F /  8.5 °C 29.5in /  1000.3hPa ENE 2.9mph /  4.7km/h 7mph /  11.3km/h 91% 0.01in /  0.2mm 30 W/m2
09:30 49.8 °F /  9.9 °C 47.3 °F /  8.5 °C 29.5in /  1000.3hPa NE 2mph /  3.2km/h 3mph /  4.8km/h 91% 0.02in /  0.5mm 26 W/m2
09:35 49.8 °F /  9.9 °C 47.3 °F /  8.5 °C 29.6in /  1000.7hPa ENE 2mph /  3.2km/h 4mph /  6.4km/h 91% 0.02in /  0.5mm 28 W/m2
09:40 49.8 °F /  9.9 °C 47.7 °F /  8.7 °C 29.5in /  1000.3hPa ENE 2mph /  3.2km/h 4mph /  6.4km/h 92% 0.02in /  0.5mm 37 W/m2
09:45 49.8 °F /  9.9 °C 47.7 °F /  8.7 °C 29.5in /  1000.3hPa ENE 2mph /  3.2km/h 6mph /  9.7km/h 92% 0.02in /  0.5mm 46 W/m2
09:50 49.8 °F /  9.9 °C 47.7 °F /  8.7 °C 29.6in /  1000.7hPa NW 2.9mph /  4.7km/h 3mph /  4.8km/h 92% 0.03in /  0.8mm 60 W/m2
09:55 49.8 °F /  9.9 °C 47.7 °F /  8.7 °C 29.6in /  1000.7hPa NE 0.9mph /  1.4km/h 6mph /  9.7km/h 92% 0.03in /  0.8mm 54 W/m2
10:00 49.8 °F /  9.9 °C 47.8 °F /  8.8 °C 29.6in /  1000.7hPa NW 2mph /  3.2km/h 3mph /  4.8km/h 93% 0.04in /  1.0mm 37 W/m2
10:05 49.6 °F /  9.8 °C 47.7 °F /  8.7 °C 29.6in /  1000.7hPa NW 2.9mph /  4.7km/h 5mph /  8km/h 93% 0.05in /  1.3mm 46 W/m2
10:10 49.6 °F /  9.8 °C 47.7 °F /  8.7 °C 29.6in /  1000.7hPa North 2mph /  3.2km/h 7mph /  11.3km/h 93% 0.06in /  1.5mm 39 W/m2
10:15 49.6 °F /  9.8 °C 48 °F /  8.9 °C 29.6in /  1000.7hPa North 2mph /  3.2km/h 6mph /  9.7km/h 94% 0.06in /  1.5mm 67 W/m2
10:20 49.6 °F /  9.8 °C 48 °F /  8.9 °C 29.6in /  1000.7hPa ENE 2.9mph /  4.7km/h 8mph /  12.9km/h 94% 0.06in /  1.5mm 60 W/m2
10:25 49.6 °F /  9.8 °C 48 °F /  8.9 °C 29.6in /  1001.0hPa NNW 4mph /  6.4km/h 12mph /  19.3km/h 94% 0.07in /  1.8mm 37 W/m2
10:30 49.8 °F /  9.9 °C 47.8 °F /  8.8 °C 29.6in /  1000.7hPa NW 2mph /  3.2km/h 2mph /  3.2km/h 93% 0.07in /  1.8mm 74 W/m2
10:35 49.8 °F /  9.9 °C 48.2 °F /  9 °C 29.6in /  1000.7hPa NW 2mph /  3.2km/h 12mph /  19.3km/h 94% 0.07in /  1.8mm 56 W/m2
10:40 50 °F /  10 °C 48 °F /  8.9 °C 29.6in /  1000.7hPa WNW 2.9mph /  4.7km/h 8mph /  12.9km/h 93% 0.07in /  1.8mm 44 W/m2
10:45 50.2 °F /  10.1 °C 48.2 °F /  9 °C 29.6in /  1000.7hPa NNW 4mph /  6.4km/h 4mph /  6.4km/h 93% 0.07in /  1.8mm 79 W/m2
10:50 50.2 °F /  10.1 °C 48.2 °F /  9 °C 29.6in /  1000.7hPa ESE 4mph /  6.4km/h 5mph /  8km/h 93% 0.06in /  1.5mm 116 W/m2
10:55 50.4 °F /  10.2 °C 48.4 °F /  9.1 °C 29.6in /  1000.7hPa North 2mph /  3.2km/h 4mph /  6.4km/h 93% 0.06in /  1.5mm 135 W/m2
11:00 50.5 °F /  10.3 °C 48.6 °F /  9.2 °C 29.6in /  1001.0hPa West 2mph /  3.2km/h 4mph /  6.4km/h 93% 0.06in /  1.5mm 100 W/m2
11:05 50.5 °F /  10.3 °C 48.6 °F /  9.2 °C 29.6in /  1001.0hPa North 0.9mph /  1.4km/h 3mph /  4.8km/h 93% 0.06in /  1.5mm 107 W/m2
11:10 50.5 °F /  10.3 °C 48.6 °F /  9.2 °C 29.6in /  1001.0hPa ENE 0.9mph /  1.4km/h 4mph /  6.4km/h 93% 0.05in /  1.3mm 114 W/m2
11:15 50.7 °F /  10.4 °C 48.7 °F /  9.3 °C 29.6in /  1001.0hPa NNE 2.9mph /  4.7km/h 4mph /  6.4km/h 93% 0.05in /  1.3mm 90 W/m2
11:20 50.7 °F /  10.4 °C 48.7 °F /  9.3 °C 29.6in /  1001.0hPa NW 2mph /  3.2km/h 6mph /  9.7km/h 93% 0.05in /  1.3mm 60 W/m2
11:25 50.7 °F /  10.4 °C 48.7 °F /  9.3 °C 29.6in /  1001.0hPa North 2mph /  3.2km/h 4mph /  6.4km/h 93% 0.04in /  1.0mm 67 W/m2
11:30 50.7 °F /  10.4 °C 48.7 °F /  9.3 °C 29.6in /  1001.0hPa NW 2.9mph /  4.7km/h 3mph /  4.8km/h 93% 0.04in /  1.0mm 70 W/m2
11:35 50.7 °F /  10.4 °C 48.7 °F /  9.3 °C 29.6in /  1001.0hPa Calm   3mph /  4.8km/h 93% 0.04in /  1.0mm 51 W/m2
11:40 50.7 °F /  10.4 °C 48.7 °F /  9.3 °C 29.6in /  1001.0hPa ENE 2mph /  3.2km/h 5mph /  8km/h 93% 0.04in /  1.0mm 86 W/m2
11:45 50.7 °F /  10.4 °C 48.7 °F /  9.3 °C 29.6in /  1001.4hPa SE 0.9mph /  1.4km/h 7mph /  11.3km/h 93% 0.05in /  1.3mm 116 W/m2
11:50 50.7 °F /  10.4 °C 48.7 °F /  9.3 °C 29.6in /  1001.0hPa ENE 0.9mph /  1.4km/h 3mph /  4.8km/h 93% 0.06in /  1.5mm 130 W/m2
11:55 50.7 °F /  10.4 °C 49.1 °F /  9.5 °C 29.6in /  1001.0hPa Calm   7mph /  11.3km/h 94% 0.06in /  1.5mm 97 W/m2
12:00 50.9 °F /  10.5 °C 49.3 °F /  9.6 °C 29.6in /  1001.0hPa North 2mph /  3.2km/h 5mph /  8km/h 94% 0.07in /  1.8mm 155 W/m2
12:05 51.1 °F /  10.6 °C 49.5 °F /  9.7 °C 29.6in /  1001.0hPa Calm   5mph /  8km/h 94% 0.07in /  1.8mm 155 W/m2
12:11 51.1 °F /  10.6 °C 49.5 °F /  9.7 °C 29.6in /  1001.4hPa NNE 2mph /  3.2km/h 4mph /  6.4km/h 94% 0.07in /  1.8mm 84 W/m2
12:16 51.3 °F /  10.7 °C 49.6 °F /  9.8 °C 29.6in /  1001.4hPa Calm   4mph /  6.4km/h 94% 0.08in /  2.0mm 123 W/m2
12:21 51.3 °F /  10.7 °C 49.6 °F /  9.8 °C 29.6in /  1001.4hPa North 0.9mph /  1.4km/h 5mph /  8km/h 94% 0.07in /  1.8mm 100 W/m2
12:26 51.3 °F /  10.7 °C 49.6 °F /  9.8 °C 29.6in /  1001.4hPa Calm   7mph /  11.3km/h 94% 0.09in /  2.3mm 183 W/m2
12:31 51.4 °F /  10.8 °C 49.8 °F /  9.9 °C 29.6in /  1001.4hPa NE 0.9mph /  1.4km/h 3mph /  4.8km/h 94% 0.08in /  2.0mm 113 W/m2
12:36 51.4 °F /  10.8 °C 49.8 °F /  9.9 °C 29.6in /  1001.4hPa NW 6mph /  9.7km/h 7mph /  11.3km/h 94% 0.09in /  2.3mm 109 W/m2
12:41 51.3 °F /  10.7 °C 49.3 °F /  9.6 °C 29.6in /  1001.4hPa North 0.9mph /  1.4km/h 8mph /  12.9km/h 93% 0.08in /  2.0mm 142 W/m2
12:46 51.4 °F /  10.8 °C 49.5 °F /  9.7 °C 29.6in /  1001.4hPa NNE 0.9mph /  1.4km/h 5mph /  8km/h 93% 0.08in /  2.0mm 114 W/m2
12:51 51.4 °F /  10.8 °C 49.5 °F /  9.7 °C 29.6in /  1001.7hPa NE 2.9mph /  4.7km/h 9mph /  14.5km/h 93% 0.07in /  1.8mm 135 W/m2
12:56 51.4 °F /  10.8 °C 49.5 °F /  9.7 °C 29.6in /  1001.7hPa NW 8.9mph /  14.3km/h 9mph /  14.5km/h 93% 0.07in /  1.8mm 146 W/m2
13:01 51.4 °F /  10.8 °C 49.5 °F /  9.7 °C 29.6in /  1001.7hPa North 2.9mph /  4.7km/h 4mph /  6.4km/h 93% 0.07in /  1.8mm 90 W/m2
13:06 51.4 °F /  10.8 °C 49.5 °F /  9.7 °C 29.6in /  1001.7hPa NNW 9mph /  14.5km/h 9mph /  14.5km/h 93% 0.07in /  1.8mm 81 W/m2
13:11 51.3 °F /  10.7 °C 49.3 °F /  9.6 °C 29.6in /  1001.7hPa West 6mph /  9.7km/h 10mph /  16.1km/h 93% 0.08in /  2.0mm 69 W/m2
13:16 51.3 °F /  10.7 °C 49.3 °F /  9.6 °C 29.6in /  1002.0hPa NW 4.9mph /  7.9km/h 9mph /  14.5km/h 93% 0.08in /  2.0mm 44 W/m2
13:21 51.3 °F /  10.7 °C 49.3 °F /  9.6 °C 29.6in /  1001.7hPa NNW 4.9mph /  7.9km/h 5mph /  8km/h 93% 0.09in /  2.3mm 37 W/m2
13:26 51.3 °F /  10.7 °C 49.3 °F /  9.6 °C 29.6in /  1001.7hPa NNE 2mph /  3.2km/h 7mph /  11.3km/h 93% 0.1in /  2.5mm 51 W/m2
13:31 51.3 °F /  10.7 °C 49.3 °F /  9.6 °C 29.6in /  1001.7hPa NW 4mph /  6.4km/h 7mph /  11.3km/h 93% 0.12in /  3.0mm 70 W/m2
13:36 51.3 °F /  10.7 °C 49.6 °F /  9.8 °C 29.6in /  1001.7hPa Calm   3mph /  4.8km/h 94% 0.14in /  3.6mm 93 W/m2
13:41 51.3 °F /  10.7 °C 49.6 °F /  9.8 °C 29.6in /  1001.7hPa North 0.9mph /  1.4km/h 4mph /  6.4km/h 94% 0.14in /  3.6mm 95 W/m2
13:46 51.3 °F /  10.7 °C 49.6 °F /  9.8 °C 29.6in /  1001.7hPa ESE 0.9mph /  1.4km/h 11mph /  17.7km/h 94% 0.14in /  3.6mm 116 W/m2
13:51 51.4 °F /  10.8 °C 49.8 °F /  9.9 °C 29.6in /  1001.7hPa NNW 0.9mph /  1.4km/h 3mph /  4.8km/h 94% 0.14in /  3.6mm 127 W/m2
13:56 51.4 °F /  10.8 °C 49.8 °F /  9.9 °C 29.6in /  1001.7hPa NE 2mph /  3.2km/h 5mph /  8km/h 94% 0.14in /  3.6mm 88 W/m2
14:01 51.6 °F /  10.9 °C 50 °F /  10 °C 29.6in /  1001.7hPa NE 0.9mph /  1.4km/h 2mph /  3.2km/h 94% 0.14in /  3.6mm 95 W/m2
14:06 51.6 °F /  10.9 °C 50 °F /  10 °C 29.6in /  1002.0hPa Calm   3mph /  4.8km/h 94% 0.13in /  3.3mm 93 W/m2
14:11 51.6 °F /  10.9 °C 50 °F /  10 °C 29.6in /  1002.0hPa ESE 2.9mph /  4.7km/h 5mph /  8km/h 94% 0.13in /  3.3mm 70 W/m2
14:16 51.8 °F /  11 °C 50.2 °F /  10.1 °C 29.6in /  1002.0hPa NW 0.9mph /  1.4km/h 2mph /  3.2km/h 94% 0.13in /  3.3mm 47 W/m2
14:21 51.8 °F /  11 °C 50.2 °F /  10.1 °C 29.6in /  1001.7hPa NE 2mph /  3.2km/h 5mph /  8km/h 94% 0.13in /  3.3mm 62 W/m2
14:26 51.8 °F /  11 °C 49.8 °F /  9.9 °C 29.6in /  1002.0hPa East 4.9mph /  7.9km/h 9mph /  14.5km/h 93% 0.13in /  3.3mm 53 W/m2
14:31 51.8 °F /  11 °C 50.2 °F /  10.1 °C 29.6in /  1002.0hPa NNW 0.9mph /  1.4km/h 4mph /  6.4km/h 94% 0.12in /  3.0mm 102 W/m2
14:36 52 °F /  11.1 °C 50.4 °F /  10.2 °C 29.6in /  1002.0hPa NNW 0.9mph /  1.4km/h 6mph /  9.7km/h 94% 0.1in /  2.5mm 54 W/m2
14:41 52 °F /  11.1 °C 50.4 °F /  10.2 °C 29.6in /  1002.0hPa West 2mph /  3.2km/h 3mph /  4.8km/h 94% 0.1in /  2.5mm 39 W/m2
14:46 52 °F /  11.1 °C 50.4 °F /  10.2 °C 29.6in /  1002.0hPa North 2mph /  3.2km/h 2mph /  3.2km/h 94% 0.11in /  2.8mm 74 W/m2
14:51 52 °F /  11.1 °C 50.4 °F /  10.2 °C 29.6in /  1002.0hPa NNE 2.9mph /  4.7km/h 3mph /  4.8km/h 94% 0.12in /  3.0mm 77 W/m2
14:56 52 °F /  11.1 °C 50.4 °F /  10.2 °C 29.6in /  1002.0hPa WNW 0.9mph /  1.4km/h 3mph /  4.8km/h 94% 0.11in /  2.8mm 100 W/m2
15:01 52.2 °F /  11.2 °C 50.5 °F /  10.3 °C 29.6in /  1002.0hPa ESE 0.9mph /  1.4km/h 7mph /  11.3km/h 94% 0.11in /  2.8mm 120 W/m2
15:06 52.3 °F /  11.3 °C 50.7 °F /  10.4 °C 29.6in /  1002.0hPa NNE 2mph /  3.2km/h 3mph /  4.8km/h 94% 0.11in /  2.8mm 118 W/m2
15:11 52.3 °F /  11.3 °C 50.7 °F /  10.4 °C 29.6in /  1002.0hPa WNW 7mph /  11.3km/h 7mph /  11.3km/h 94% 0.11in /  2.8mm 114 W/m2
15:16 52.5 °F /  11.4 °C 50.9 °F /  10.5 °C 29.6in /  1002.0hPa NNW 0.9mph /  1.4km/h 6mph /  9.7km/h 94% 0.1in /  2.5mm 123 W/m2
15:21 52.5 °F /  11.4 °C 50.9 °F /  10.5 °C 29.6in /  1002.0hPa NNE 7mph /  11.3km/h 7mph /  11.3km/h 94% 0.09in /  2.3mm 120 W/m2
15:26 52.5 °F /  11.4 °C 50.9 °F /  10.5 °C 29.6in /  1002.0hPa NNE 2mph /  3.2km/h 5mph /  8km/h 94% 0.07in /  1.8mm 93 W/m2
15:31 52.7 °F /  11.5 °C 51.1 °F /  10.6 °C 29.6in /  1002.0hPa WSW 2.9mph /  4.7km/h 5mph /  8km/h 94% 0.06in /  1.5mm 90 W/m2
15:36 52.7 °F /  11.5 °C 51.1 °F /  10.6 °C 29.6in /  1002.0hPa NW 2mph /  3.2km/h 3mph /  4.8km/h 94% 0.06in /  1.5mm 70 W/m2
15:42 52.7 °F /  11.5 °C 51.1 °F /  10.6 °C 29.6in /  1002.0hPa NE 0.9mph /  1.4km/h 5mph /  8km/h 94% 0.06in /  1.5mm 62 W/m2
15:47 52.7 °F /  11.5 °C 51.1 °F /  10.6 °C 29.6in /  1002.0hPa Calm   6mph /  9.7km/h 94% 0.04in /  1.0mm 83 W/m2
15:52 52.7 °F /  11.5 °C 51.1 °F /  10.6 °C 29.6in /  1002.0hPa NNW 2.9mph /  4.7km/h 9mph /  14.5km/h 94% 0.03in /  0.8mm 69 W/m2
15:57 52.7 °F /  11.5 °C 51.1 °F /  10.6 °C 29.6in /  1002.0hPa ESE 2mph /  3.2km/h 3mph /  4.8km/h 94% 0.04in /  1.0mm 83 W/m2
16:02 52.7 °F /  11.5 °C 51.1 °F /  10.6 °C 29.6in /  1002.0hPa Calm   3mph /  4.8km/h 94% 0.04in /  1.0mm 72 W/m2
16:07 52.9 °F /  11.6 °C 51.3 °F /  10.7 °C 29.6in /  1002.0hPa ENE 2mph /  3.2km/h 5mph /  8km/h 94% 0.04in /  1.0mm 62 W/m2
16:12 52.9 °F /  11.6 °C 51.3 °F /  10.7 °C 29.6in /  1002.0hPa NNW 2.9mph /  4.7km/h 6mph /  9.7km/h 94% 0.05in /  1.3mm 77 W/m2
16:17 52.9 °F /  11.6 °C 51.3 °F /  10.7 °C 29.6in /  1002.0hPa NNE 4.9mph /  7.9km/h 6mph /  9.7km/h 94% 0.06in /  1.5mm 67 W/m2
16:22 52.9 °F /  11.6 °C 51.3 °F /  10.7 °C 29.6in /  1002.0hPa NNE 2.9mph /  4.7km/h 3mph /  4.8km/h 94% 0.06in /  1.5mm 81 W/m2
16:27 52.9 °F /  11.6 °C 51.4 °F /  10.8 °C 29.6in /  1002.0hPa ENE 2mph /  3.2km/h 6mph /  9.7km/h 95% 0.06in /  1.5mm 81 W/m2
16:32 52.9 °F /  11.6 °C 51.4 °F /  10.8 °C 29.6in /  1002.0hPa WNW 0.9mph /  1.4km/h 6mph /  9.7km/h 95% 0.06in /  1.5mm 76 W/m2
16:37 52.9 °F /  11.6 °C 51.3 °F /  10.7 °C 29.6in /  1002.0hPa NE 2mph /  3.2km/h 3mph /  4.8km/h 94% 0.05in /  1.3mm 81 W/m2
16:42 53.1 °F /  11.7 °C 51.4 °F /  10.8 °C 29.6in /  1002.0hPa WNW 2.9mph /  4.7km/h 8mph /  12.9km/h 94% 0.05in /  1.3mm 63 W/m2
16:47 53.1 °F /  11.7 °C 51.4 °F /  10.8 °C 29.6in /  1002.0hPa North 2mph /  3.2km/h 4mph /  6.4km/h 94% 0.05in /  1.3mm 58 W/m2
16:52 53.1 °F /  11.7 °C 51.4 °F /  10.8 °C 29.6in /  1002.4hPa North 2mph /  3.2km/h 8mph /  12.9km/h 94% 0.06in /  1.5mm 74 W/m2
16:57 53.1 °F /  11.7 °C 51.4 °F /  10.8 °C 29.6in /  1002.4hPa NNW 2.9mph /  4.7km/h 3mph /  4.8km/h 94% 0.05in /  1.3mm 88 W/m2
17:02 53.1 °F /  11.7 °C 51.4 °F /  10.8 °C 29.6in /  1002.4hPa East 2.9mph /  4.7km/h 6mph /  9.7km/h 94% 0.04in /  1.0mm 56 W/m2
17:07 53.1 °F /  11.7 °C 51.4 °F /  10.8 °C 29.6in /  1002.4hPa East 6mph /  9.7km/h 9mph /  14.5km/h 94% 0.04in /  1.0mm 69 W/m2
17:12 53.2 °F /  11.8 °C 51.6 °F /  10.9 °C 29.6in /  1002.4hPa WNW 0.9mph /  1.4km/h 3mph /  4.8km/h 94% 0.02in /  0.5mm 72 W/m2
17:17 53.2 °F /  11.8 °C 51.6 °F /  10.9 °C 29.6in /  1002.4hPa Calm   3mph /  4.8km/h 94% 0.02in /  0.5mm 44 W/m2
17:22 53.2 °F /  11.8 °C 51.6 °F /  10.9 °C 29.6in /  1002.4hPa NNE 0.9mph /  1.4km/h 5mph /  8km/h 94% 0.02in /  0.5mm 47 W/m2
17:27 53.2 °F /  11.8 °C 51.6 °F /  10.9 °C 29.6in /  1002.4hPa NNW 4.9mph /  7.9km/h 5mph /  8km/h 94% 0.02in /  0.5mm 35 W/m2
17:32 53.2 °F /  11.8 °C 51.6 °F /  10.9 °C 29.6in /  1002.4hPa NNW 0.9mph /  1.4km/h 4mph /  6.4km/h 94% 0.02in /  0.5mm 49 W/m2
17:37 53.2 °F /  11.8 °C 51.6 °F /  10.9 °C 29.6in /  1002.7hPa North 2mph /  3.2km/h 3mph /  4.8km/h 94% 0.02in /  0.5mm 40 W/m2
17:42 53.2 °F /  11.8 °C 51.6 °F /  10.9 °C 29.6in /  1002.7hPa Calm   6mph /  9.7km/h 94% 0.02in /  0.5mm 46 W/m2
17:47 53.2 °F /  11.8 °C 51.6 °F /  10.9 °C 29.6in /  1002.7hPa SW 2.9mph /  4.7km/h 7mph /  11.3km/h 94% 0.02in /  0.5mm 58 W/m2
17:52 53.4 °F /  11.9 °C 51.8 °F /  11 °C 29.6in /  1002.7hPa NNW 2.9mph /  4.7km/h 7mph /  11.3km/h 94% 0.02in /  0.5mm 37 W/m2
17:57 53.4 °F /  11.9 °C 51.8 °F /  11 °C 29.6in /  1003.0hPa Calm   4mph /  6.4km/h 94% 0.02in /  0.5mm 44 W/m2
18:02 53.4 °F /  11.9 °C 51.8 °F /  11 °C 29.6in /  1002.7hPa NW 2mph /  3.2km/h 3mph /  4.8km/h 94% 0.02in /  0.5mm 84 W/m2
18:07 53.4 °F /  11.9 °C 51.8 °F /  11 °C 29.6in /  1003.0hPa Calm   3mph /  4.8km/h 94% 0.02in /  0.5mm 33 W/m2
18:12 53.4 °F /  11.9 °C 51.8 °F /  11 °C 29.6in /  1003.0hPa Calm   1mph /  1.6km/h 94% 0.02in /  0.5mm 12 W/m2
18:18 53.2 °F /  11.8 °C 51.6 °F /  10.9 °C 29.6in /  1003.0hPa Calm   1mph /  1.6km/h 94% 0.02in /  0.5mm 7 W/m2
18:23 53.2 °F /  11.8 °C 51.6 °F /  10.9 °C 29.6in /  1002.7hPa NW 2.9mph /  4.7km/h 3mph /  4.8km/h 94% 0.02in /  0.5mm 7 W/m2
18:33 53.2 °F /  11.8 °C 51.8 °F /  11 °C 29.6in /  1003.0hPa WNW 4mph /  6.4km/h 4mph /  6.4km/h 95% 0.02in /  0.5mm 5 W/m2
18:38 53.2 °F /  11.8 °C 51.8 °F /  11 °C 29.6in /  1003.0hPa NNW 2mph /  3.2km/h 3mph /  4.8km/h 95% 0.02in /  0.5mm 12 W/m2
18:43 53.2 °F /  11.8 °C 51.8 °F /  11 °C 29.6in /  1003.0hPa Calm   3mph /  4.8km/h 95% 0.03in /  0.8mm 0 W/m2
18:48 53.2 °F /  11.8 °C 51.8 °F /  11 °C 29.6in /  1003.0hPa NNE 0.9mph /  1.4km/h 5mph /  8km/h 95% 0.03in /  0.8mm 0 W/m2
18:53 53.2 °F /  11.8 °C 51.8 °F /  11 °C 29.6in /  1003.0hPa East 2mph /  3.2km/h 3mph /  4.8km/h 95% 0.03in /  0.8mm 0 W/m2
18:58 53.2 °F /  11.8 °C 51.8 °F /  11 °C 29.6in /  1003.0hPa Calm   6mph /  9.7km/h 95% 0.03in /  0.8mm 0 W/m2
19:03 53.2 °F /  11.8 °C 51.8 °F /  11 °C 29.6in /  1003.0hPa NNW 2.9mph /  4.7km/h 5mph /  8km/h 95% 0.04in /  1.0mm 0 W/m2
19:08 53.2 °F /  11.8 °C 51.8 °F /  11 °C 29.6in /  1003.0hPa WNW 0.9mph /  1.4km/h 7mph /  11.3km/h 95% 0.03in /  0.8mm 0 W/m2
19:13 53.2 °F /  11.8 °C 51.8 °F /  11 °C 29.6in /  1003.4hPa ENE 2mph /  3.2km/h 3mph /  4.8km/h 95% 0.03in /  0.8mm 0 W/m2
19:18 53.2 °F /  11.8 °C 51.8 °F /  11 °C 29.6in /  1003.0hPa WSW 0.9mph /  1.4km/h 7mph /  11.3km/h 95% 0.03in /  0.8mm 0 W/m2
19:23 53.2 °F /  11.8 °C 51.8 °F /  11 °C 29.6in /  1003.0hPa WNW 0.9mph /  1.4km/h 4mph /  6.4km/h 95% 0.03in /  0.8mm 0 W/m2
19:28 53.2 °F /  11.8 °C 51.8 °F /  11 °C 29.6in /  1003.4hPa WNW 2.9mph /  4.7km/h 6mph /  9.7km/h 95% 0.03in /  0.8mm 0 W/m2
19:33 53.4 °F /  11.9 °C 51.8 °F /  11 °C 29.6in /  1003.4hPa WNW 4.9mph /  7.9km/h 6mph /  9.7km/h 94% 0.02in /  0.5mm 0 W/m2
19:38 53.4 °F /  11.9 °C 51.8 °F /  11 °C 29.6in /  1003.4hPa WSW 0.9mph /  1.4km/h 7mph /  11.3km/h 94% 0.02in /  0.5mm 0 W/m2
19:43 53.4 °F /  11.9 °C 51.8 °F /  11 °C 29.6in /  1003.4hPa NW 0.9mph /  1.4km/h 3mph /  4.8km/h 94% 0.01in /  0.2mm 0 W/m2
19:48 53.4 °F /  11.9 °C 51.8 °F /  11 °C 29.6in /  1003.4hPa Calm   5mph /  8km/h 94% 0.01in /  0.2mm 0 W/m2
19:53 53.4 °F /  11.9 °C 51.8 °F /  11 °C 29.6in /  1003.4hPa ESE 2.9mph /  4.7km/h 3mph /  4.8km/h 94% 0.01in /  0.2mm 0 W/m2
19:58 53.4 °F /  11.9 °C 51.8 °F /  11 °C 29.6in /  1003.4hPa Calm   7mph /  11.3km/h 94% 0.01in /  0.2mm 0 W/m2
20:03 53.4 °F /  11.9 °C 51.8 °F /  11 °C 29.6in /  1003.4hPa NNE 2mph /  3.2km/h 4mph /  6.4km/h 94% 0.01in /  0.2mm 0 W/m2
20:08 53.4 °F /  11.9 °C 51.8 °F /  11 °C 29.6in /  1003.4hPa WNW 2.9mph /  4.7km/h 9mph /  14.5km/h 94% 0.01in /  0.2mm 0 W/m2
20:13 53.4 °F /  11.9 °C 51.8 °F /  11 °C 29.6in /  1003.4hPa West 6mph /  9.7km/h 6mph /  9.7km/h 94% 0.02in /  0.5mm 0 W/m2
20:18 53.4 °F /  11.9 °C 51.8 °F /  11 °C 29.6in /  1003.7hPa West 4mph /  6.4km/h 9mph /  14.5km/h 94% 0.02in /  0.5mm 0 W/m2
20:23 53.6 °F /  12 °C 52 °F /  11.1 °C 29.6in /  1003.7hPa North 0.9mph /  1.4km/h 10mph /  16.1km/h 94% 0.02in /  0.5mm 0 W/m2
20:28 53.8 °F /  12.1 °C 52.2 °F /  11.2 °C 29.6in /  1003.4hPa NW 0.9mph /  1.4km/h 4mph /  6.4km/h 94% 0.02in /  0.5mm 0 W/m2
20:33 53.8 °F /  12.1 °C 52.2 °F /  11.2 °C 29.6in /  1003.7hPa Calm   8mph /  12.9km/h 94% 0.02in /  0.5mm 0 W/m2
20:38 53.8 °F /  12.1 °C 52.2 °F /  11.2 °C 29.6in /  1003.4hPa WNW 2mph /  3.2km/h 4mph /  6.4km/h 94% 0.02in /  0.5mm 0 W/m2
20:43 53.8 °F /  12.1 °C 52.2 °F /  11.2 °C 29.6in /  1003.7hPa NW 0.9mph /  1.4km/h 2mph /  3.2km/h 94% 0.02in /  0.5mm 0 W/m2
20:48 53.8 °F /  12.1 °C 52.2 °F /  11.2 °C 29.6in /  1003.7hPa SSE 0.9mph /  1.4km/h 7mph /  11.3km/h 94% 0.03in /  0.8mm 0 W/m2
20:53 53.8 °F /  12.1 °C 52.2 °F /  11.2 °C 29.6in /  1003.7hPa NNW 2.9mph /  4.7km/h 7mph /  11.3km/h 94% 0.04in /  1.0mm 0 W/m2
20:58 53.8 °F /  12.1 °C 52.2 °F /  11.2 °C 29.6in /  1003.7hPa NNW 2mph /  3.2km/h 3mph /  4.8km/h 94% 0.04in /  1.0mm 0 W/m2
21:03 53.6 °F /  12 °C 52 °F /  11.1 °C 29.6in /  1003.7hPa WSW 0.9mph /  1.4km/h 2mph /  3.2km/h 94% 0.04in /  1.0mm 0 W/m2
21:08 53.6 °F /  12 °C 52 °F /  11.1 °C 29.6in /  1003.7hPa NE 2.9mph /  4.7km/h 5mph /  8km/h 94% 0.05in /  1.3mm 0 W/m2
21:13 53.6 °F /  12 °C 52 °F /  11.1 °C 29.6in /  1003.7hPa SW 2mph /  3.2km/h 6mph /  9.7km/h 94% 0.04in /  1.0mm 0 W/m2
21:18 53.6 °F /  12 °C 52 °F /  11.1 °C 29.6in /  1003.7hPa North 0.9mph /  1.4km/h 3mph /  4.8km/h 94% 0.05in /  1.3mm 0 W/m2
21:23 53.4 °F /  11.9 °C 51.8 °F /  11 °C 29.6in /  1003.7hPa North 0.9mph /  1.4km/h 4mph /  6.4km/h 94% 0.06in /  1.5mm 0 W/m2
21:28 53.4 °F /  11.9 °C 51.8 °F /  11 °C 29.6in /  1003.7hPa NNW 2mph /  3.2km/h 2mph /  3.2km/h 94% 0.06in /  1.5mm 0 W/m2
21:33 53.4 °F /  11.9 °C 51.8 °F /  11 °C 29.6in /  1003.7hPa WNW 2mph /  3.2km/h 2mph /  3.2km/h 94% 0.06in /  1.5mm 0 W/m2
21:38 53.4 °F /  11.9 °C 51.8 °F /  11 °C 29.6in /  1003.7hPa East 0.9mph /  1.4km/h 3mph /  4.8km/h 94% 0.07in /  1.8mm 0 W/m2
21:43 53.4 °F /  11.9 °C 51.8 °F /  11 °C 29.6in /  1003.7hPa NE 2.9mph /  4.7km/h 5mph /  8km/h 94% 0.09in /  2.3mm 0 W/m2
21:48 53.4 °F /  11.9 °C 52 °F /  11.1 °C 29.6in /  1003.7hPa NE 2mph /  3.2km/h 3mph /  4.8km/h 95% 0.09in /  2.3mm 0 W/m2
21:53 53.4 °F /  11.9 °C 52 °F /  11.1 °C 29.6in /  1003.4hPa North 2.9mph /  4.7km/h 5mph /  8km/h 95% 0.09in /  2.3mm 0 W/m2
21:58 53.2 °F /  11.8 °C 51.8 °F /  11 °C 29.6in /  1003.4hPa NNE 0.9mph /  1.4km/h 3mph /  4.8km/h 95% 0.09in /  2.3mm 0 W/m2
22:04 53.2 °F /  11.8 °C 51.8 °F /  11 °C 29.6in /  1003.4hPa NNW 2.9mph /  4.7km/h 4mph /  6.4km/h 95% 0.11in /  2.8mm 0 W/m2
22:09 53.2 °F /  11.8 °C 51.8 °F /  11 °C 29.6in /  1003.4hPa NNE 2mph /  3.2km/h 5mph /  8km/h 95% 0.1in /  2.5mm 0 W/m2
22:14 53.2 °F /  11.8 °C 51.8 °F /  11 °C 29.6in /  1003.4hPa NNW 2.9mph /  4.7km/h 3mph /  4.8km/h 95% 0.11in /  2.8mm 0 W/m2
22:19 53.2 °F /  11.8 °C 51.8 °F /  11 °C 29.6in /  1003.4hPa ENE 0.9mph /  1.4km/h 4mph /  6.4km/h 95% 0.11in /  2.8mm 0 W/m2
22:24 53.4 °F /  11.9 °C 52 °F /  11.1 °C 29.6in /  1003.4hPa NNW 2.9mph /  4.7km/h 8mph /  12.9km/h 95% 0.1in /  2.5mm 0 W/m2
22:29 53.4 °F /  11.9 °C 52 °F /  11.1 °C 29.6in /  1003.4hPa NW 0.9mph /  1.4km/h 3mph /  4.8km/h 95% 0.1in /  2.5mm 0 W/m2
22:34 53.4 °F /  11.9 °C 52 °F /  11.1 °C 29.6in /  1003.4hPa NNE 0.9mph /  1.4km/h 8mph /  12.9km/h 95% 0.1in /  2.5mm 0 W/m2
22:39 53.4 °F /  11.9 °C 52 °F /  11.1 °C 29.6in /  1003.4hPa NNW 0.9mph /  1.4km/h 2mph /  3.2km/h 95% 0.1in /  2.5mm 0 W/m2
22:44 53.4 °F /  11.9 °C 52 °F /  11.1 °C 29.6in /  1003.4hPa NW 0.9mph /  1.4km/h 2mph /  3.2km/h 95% 0.1in /  2.5mm 0 W/m2
22:49 53.4 °F /  11.9 °C 52 °F /  11.1 °C 29.6in /  1003.4hPa SE 0.9mph /  1.4km/h 2mph /  3.2km/h 95% 0.11in /  2.8mm 0 W/m2
22:54 53.2 °F /  11.8 °C 51.8 °F /  11 °C 29.6in /  1003.4hPa SE 2mph /  3.2km/h 3mph /  4.8km/h 95% 0.1in /  2.5mm 0 W/m2
22:59 53.2 °F /  11.8 °C 51.8 °F /  11 °C 29.6in /  1003.4hPa Calm   2mph /  3.2km/h 95% 0.1in /  2.5mm 0 W/m2
23:04 53.1 °F /  11.7 °C 51.6 °F /  10.9 °C 29.6in /  1003.4hPa NE 0.9mph /  1.4km/h 3mph /  4.8km/h 95% 0.09in /  2.3mm 0 W/m2
23:09 53.1 °F /  11.7 °C 51.6 °F /  10.9 °C 29.6in /  1003.4hPa NE 0.9mph /  1.4km/h 4mph /  6.4km/h 95% 0.09in /  2.3mm 0 W/m2
23:14 53.1 °F /  11.7 °C 51.6 °F /  10.9 °C 29.6in /  1003.4hPa NNW 0.9mph /  1.4km/h 3mph /  4.8km/h 95% 0.09in /  2.3mm 0 W/m2
23:19 53.1 °F /  11.7 °C 51.6 °F /  10.9 °C 29.6in /  1003.4hPa NW 4mph /  6.4km/h 7mph /  11.3km/h 95% 0.09in /  2.3mm 0 W/m2
23:24 53.2 °F /  11.8 °C 51.8 °F /  11 °C 29.6in /  1003.4hPa North 2mph /  3.2km/h 7mph /  11.3km/h 95% 0.1in /  2.5mm 0 W/m2
23:29 53.4 °F /  11.9 °C 52 °F /  11.1 °C 29.6in /  1003.4hPa WSW 4.9mph /  7.9km/h 7mph /  11.3km/h 95% 0.1in /  2.5mm 0 W/m2
23:34 53.4 °F /  11.9 °C 52 °F /  11.1 °C 29.6in /  1003.4hPa WNW 4mph /  6.4km/h 8mph /  12.9km/h 95% 0.09in /  2.3mm 0 W/m2
23:39 53.6 °F /  12 °C 52.2 °F /  11.2 °C 29.6in /  1003.7hPa West 4mph /  6.4km/h 8mph /  12.9km/h 95% 0.09in /  2.3mm 0 W/m2
23:44 53.8 °F /  12.1 °C 52.3 °F /  11.3 °C 29.6in /  1003.7hPa WNW 2mph /  3.2km/h 8mph /  12.9km/h 95% 0.09in /  2.3mm 0 W/m2
23:49 53.8 °F /  12.1 °C 52.3 °F /  11.3 °C 29.6in /  1003.4hPa West 2mph /  3.2km/h 8mph /  12.9km/h 95% 0.09in /  2.3mm 0 W/m2
23:54 53.8 °F /  12.1 °C 52.3 °F /  11.3 °C 29.6in /  1003.4hPa WNW 4mph /  6.4km/h 11mph /  17.7km/h 95% 0.09in /  2.3mm 0 W/m2
23:59 53.8 °F /  12.1 °C 52.3 °F /  11.3 °C 29.6in /  1003.7hPa WNW 4.9mph /  7.9km/h 11mph /  17.7km/h 95% 0.08in /  2.0mm 0 W/m2
Juneau County Weather
Compliments of Weather Underground - 2 mb